Identifiez vous afin de poster une observation
 • Tableaux GEFS   

Tableaux GEFS de Températures 500hPa (°C)

Run GEFS du 25/06/2019 18Z - Choix du run : 00 - 06 - 12 - 18 Sauver tableau : Conserver cette image

Paramètres : [ Temp. 850hPa ] - [ Temp. 500hPa ] - [ Pression ] - [ Précip. ] - [ Temp. 2m ] - [ Z500 ] - [ CAPE ] -
[ Vent+Direction 10m ] - [ Vent 10m ] - [ Vent Rafales 10m ] - [ Vent+Direction 850hPa ] - [ Vent 850hPa ] - [ Iso 0 ] -
Tri des valeurs : [ Par scénario ] - [ Ascendant ] - [ Descendant ]

Localisation : 46.3N 6.4E

DateEch.01234567891011121314151617181920GFS
2019-06-25 18Z0-9.8-9.3-10-9.7-10.2-9.7-9.6-10.3-9.6-10.2-10.2-9.7-10-9.6-9.8-9.7-9.8-10-10.6-10-10-10.1
2019-06-25 21Z3-9.6-9.7-9.3-9.3-9.7-9.6-9.2-9.7-9.7-9.7-9.7-9.6-9.6-9.7-9.7-9.5-9.6-9.6-9.7-9.2-9.6-9.9
2019-06-26 00Z6-9.8-10-9.7-9.7-9.8-10-9.5-9.7-10-10.1-10.1-9.7-10.1-10.1-9.7-9.7-10-9.7-10.1-9.7-9.8-10.3
2019-06-26 03Z9-10.1-10.1-10-9.8-10.1-10.1-9.6-10.1-10.1-10.2-10-9.8-10.1-10.2-10.1-10.1-10.1-10.1-10.1-10.2-10.2-10.3
2019-06-26 06Z12-10.2-10.2-10.2-10.2-10.2-10.2-9.8-10.2-10.2-10.2-10.2-10.2-10.3-10.2-10.2-10.2-10.2-10.3-10.2-10.2-10.3-10.5
2019-06-26 09Z15-10.2-10.1-10.2-10.1-10.2-10.2-9.7-10.1-10.1-10.2-10.1-10.1-10.2-10.2-10.2-10.1-10.1-10.2-10.2-10.1-10.2-10.5
2019-06-26 12Z18-10-9.7-10-10-10.1-10.1-9.7-9.8-9.8-10.1-10.1-10-10-9.7-9.8-10-9.8-9.8-9.8-10-10-10.3
2019-06-26 15Z21-9.7-9.7-9.7-9.8-9.8-9.8-9.5-9.7-9.7-9.7-9.8-9.7-9.7-9.6-9.7-9.7-9.7-9.7-9.7-9.7-9.7-9.8
2019-06-26 18Z24-9.7-9.7-9.7-9.7-9.7-9.7-9.5-9.7-9.5-9.6-9.6-9.7-9.7-9.5-9.6-9.7-9.7-9.7-9.7-9.7-9.6-9.8
2019-06-26 21Z27-9.3-9.5-9.2-9.2-9.6-9.3-8.8-9.3-9.2-9.5-9.1-9.3-9.6-9.2-9.2-9.2-9.3-9.3-9.3-9.3-9.2-9
2019-06-27 00Z30-9.3-9.6-9.2-9.5-9.7-9.5-8.8-9.5-9.3-9.6-9.3-9.5-9.7-9.2-9.3-9.5-9.7-9.3-9.5-9.6-9.3-9.1
2019-06-27 03Z33-9.7-9.8-9.6-9.7-9.8-9.7-9.2-9.7-9.5-9.8-9.7-9.8-10-9.5-9.7-9.8-9.8-9.7-9.6-9.8-9.7-9.5
2019-06-27 06Z36-9.7-10-9.5-9.6-9.7-9.7-9.3-9.5-9.3-9.7-9.6-9.7-10-9.6-9.7-9.7-9.7-9.6-9.3-9.8-9.8-9.5
2019-06-27 09Z39-9.2-9.5-9.1-9.2-9.3-9.2-9-9.2-9.2-9.5-9.2-9.3-9.6-9.3-9.5-9.2-9.3-9.2-9.2-9.6-9.5-9
2019-06-27 12Z42-9.2-9.2-8.7-9.1-9.2-9.1-8.8-9.2-9.1-9.3-9-9.2-9.2-9.2-9.2-9.1-9.2-9.1-9-9.5-9.2-8.5
2019-06-27 15Z45-9-9.1-8.6-9-8.7-8.8-8.7-8.8-9.1-9.3-9-9.1-9.1-9.2-9.2-9-9.2-8.8-8.8-9.2-9.1-8.3
2019-06-27 18Z48-9-9-8.3-8.7-8.7-8.7-8.7-8.7-9-9.3-9.2-9-9.2-9.2-9-8.7-9.2-8.8-8.7-9.2-8.8-8.1
2019-06-27 21Z51-8.6-8.7-8-8.5-8.7-8.3-8.2-8.3-8.8-9.1-9-8.8-8.8-8.8-8.8-8.5-9-8.7-8.6-9.1-8.5-8.1
2019-06-28 00Z54-8.6-8.8-8-8.6-8.5-8.2-8.3-8.2-8.7-9.2-9.1-9.1-8.7-8.8-9.1-8.5-9-8.7-8.3-9-8.3-8.1
2019-06-28 03Z57-8.8-9.1-8.3-8.8-8.6-8.6-8.7-8.5-9.1-9.7-9.2-9.5-8.7-9-9.1-8.7-9.1-8.8-8.6-9.1-8.7-8.1
2019-06-28 06Z60-9-9.2-8.5-8.6-8.7-8.6-8.7-8.3-9-9.8-9.1-9.5-9.1-8.7-8.7-8.7-9.1-9.1-8.7-9-8.7-8
2019-06-28 09Z63-8.7-9-8.2-8.2-8.7-8.2-8.7-8.2-8.7-9.6-9-9.1-9-8.6-8.6-8.7-8.7-9-8.3-8.7-8.5-8.1
2019-06-28 12Z66-8.5-8.7-7.8-8.1-8.3-8.1-8.3-8.1-8.2-9.1-8.7-8.6-8.5-8.3-8.3-8.6-8.3-8.7-8.1-8.5-8.2-8
2019-06-28 15Z69-8.1-8.5-7.7-7.7-8-7.7-8-7.7-8-8.7-8.3-8.2-8.2-8-8-8.3-8.1-8.2-7.7-8.1-7.8-7.9
2019-06-28 18Z72-7.8-8.1-7.3-7.2-8-7.6-7.7-7.7-7.7-8.3-8.1-7.8-8.2-7.7-7.7-8.1-7.8-8-7.5-7.7-7.5-7.6
2019-06-28 21Z75-7.7-7.7-7.2-6.8-7.8-7.3-7.7-7.5-7.5-8.1-7.7-7.7-8-7.3-7.6-7.8-7.8-7.7-7.2-7.5-7.2-6.9
2019-06-29 00Z78-7.6-7.5-7.2-7.1-7.7-7.3-7.6-7.3-7.6-8-7.6-7.7-7.7-7.2-7.6-7.8-7.7-7.7-7.2-7.2-7.5-6.7
2019-06-29 03Z81-7.7-7.6-7.3-7.2-7.8-7.3-7.7-7.3-7.6-8.1-7.7-7.7-7.7-7.2-7.6-7.8-7.7-7.8-7.2-7.5-7.6-7.3
2019-06-29 06Z84-7.7-7.7-7.5-7.2-7.8-7.5-7.7-7.5-7.7-8-7.6-7.6-7.7-7.2-7.6-7.7-7.6-8-7.3-7.7-7.7-7.2
2019-06-29 09Z87-7.7-7.7-7.6-7.1-7.7-7.2-7.7-7.3-7.5-7.8-7.5-7.6-7.6-7.2-7.7-7.7-7.6-8.1-7.2-7.6-7.6-7.1
2019-06-29 12Z90-7.7-7.7-7.5-7.2-7.7-7.1-7.8-7.5-7.6-7.7-7.5-7.6-7.6-7.2-7.7-7.7-7.6-8.2-7.3-7.3-7.7-7.2
2019-06-29 15Z93-7.7-7.7-7.5-7.6-7.5-7.3-7.8-7.6-7.7-7.8-7.6-7.5-7.5-7.7-8.1-7.7-7.6-8.5-7.5-7.5-8-7.3
2019-06-29 18Z96-7.7-7.7-7.6-7.7-7.5-7.5-7.7-7.5-7.8-8.1-7.7-7.6-7.6-7.7-8.2-7.7-7.7-8.7-7.5-7.7-8.1-7.4
2019-06-29 21Z99-7.7-8-7.7-7.7-7.7-7.6-7.7-7.7-8-8.1-7.7-7.7-7.7-7.7-8.3-7.7-7.7-8.7-7.6-8-8-7.5
2019-06-30 00Z102-8.2-8.3-8.1-8.2-8.1-8-8.2-8.6-8.2-8.7-8.2-7.8-8-8.3-8.8-8.2-8.2-9.2-8.2-8.7-8.6-8
2019-06-30 03Z105-9-9-8.8-9-8.7-8.7-9-9.2-9-9.3-9.1-8.7-8.6-9.2-9.3-8.8-9-9.5-9-9.2-9.3-8.9
2019-06-30 06Z108-9.2-9.5-9.3-9.1-8.8-9.2-9.3-9.7-9.3-9.7-9.2-9.1-9-9.3-9.5-9.2-9.1-9.7-9.2-9.3-9.3-9.3
2019-06-30 09Z111-9.2-9.7-9.7-9.2-8.7-9.2-9.7-10-9.7-9.7-9.2-9-9-9.6-9.7-9.1-9.1-9.8-9.7-9.6-9.2-9.5
2019-06-30 12Z114-9.7-10.2-10-9.7-9.2-9.7-10.2-10.3-10.1-10.1-9.7-9.5-9.2-10-10.1-9.6-9.5-10.2-10.2-9.8-9.5-10.4
2019-06-30 15Z117-10.1-10.2-10.2-10-9.5-10.2-10.2-10.7-10.3-10.2-10.1-9.7-9.6-10.3-10.5-10-9.8-10.3-10.5-9.8-9.5-10.5
2019-06-30 18Z120-10.5-10.3-10.6-10.2-9.5-10.3-10.5-10.6-10.5-11-10.5-10.1-10-10.7-10.8-10.1-10-10.7-10.7-10.3-9.6-10.7
2019-06-30 21Z123-10.7-10.5-11-10.5-9.7-10.7-10.5-10.5-10.7-10.8-11-10.3-10.2-10.7-11.1-10.5-10.2-10.7-10.7-10.6-9.7-10.9
2019-07-01 00Z126-10.7-10.6-10.7-10.8-10.5-10.6-10.7-10.7-11.2-11.1-10.8-11-10.2-11.2-11.3-10.8-10.7-11.1-10.8-10.7-9.7-10.9
2019-07-01 03Z129-11.2-10.8-11.3-11.1-11.5-10.7-11-11-11.5-11.7-11.1-11.3-10.7-11.6-11.7-11.2-10.8-11.3-11.2-10.3-10.5-11.7
2019-07-01 06Z132-11.2-11.1-11.5-11-11.7-10.3-11.5-11.2-11.7-11.1-11.2-11.6-11-11.8-11.7-11.7-10.7-11.6-11.6-10.1-10.2-11.7
2019-07-01 09Z135-11.2-11.3-10.6-11.5-12-10.6-11.7-11.2-11.7-9.8-11.6-11.8-10.8-11.7-10.6-11.7-11.2-10.7-11.6-9.3-10.8-11.9
2019-07-01 12Z138-11.1-10.7-10.2-11.2-12.2-10.8-11.1-11.3-11.8-9.7-11.7-12.2-10.6-10.7-10.2-11.3-11.2-10-10.8-9.7-11-11.7
2019-07-01 15Z141-11.3-11.2-10.8-11.2-12-11.2-11.7-11.6-11.2-9.7-11.3-11-10.7-10.7-10.5-10.2-11-10.3-10.6-10.7-11.1-11.1
2019-07-01 18Z144-11.2-11.7-11.7-11.1-11.3-10.6-11.5-12.7-11.3-10.7-11.8-11.6-11.3-11.7-10.7-9.6-11.2-9.6-11.5-11.1-10.3-10.6
2019-07-01 21Z147-11.5-11.1-11.6-11.6-10.6-9.8-11.6-11.6-11.3-11.1-12-11.1-11.3-11.2-10.2-8.7-11-9.2-11.3-11.2-10.1-10.5
2019-07-02 00Z150-11.3-10.7-12.2-12.2-10.7-11-11.5-10.7-11.3-11.8-12.7-11.2-11.2-12.2-11.1-8.7-11.1-9.7-11.6-11.7-10.1-11
2019-07-02 03Z153-11.2-11.2-11.2-13.1-10.5-12.1-11.1-10.8-11.7-11.8-13.1-11.7-11.7-13.5-12-9.1-11.8-9.7-12.2-12.6-10.5-10.9
2019-07-02 06Z156-11-11.8-10.7-11.7-10.8-12.7-11.2-10.8-12.7-12.3-12.6-12.2-11.1-12.8-12.3-9.5-12-11-12.1-12.2-10.8-11.5
2019-07-02 09Z159-10.7-12.2-10.5-11.5-11.2-13.3-11-11-12.2-12.7-11.7-12.8-11-11.7-12-10.7-11.7-11.7-12.2-13.2-11-11.7
2019-07-02 12Z162-10.8-12.6-11.2-11.2-11.2-13.3-11-11.5-12-12.5-11.1-12.2-10.5-11.2-11.1-11-11.6-12.1-11.5-12.2-10.7-11.4
2019-07-02 15Z165-11.1-12.8-12-11.5-11.2-13-11-11.6-11.5-12-11.2-11.3-10.2-11.1-12.2-11.7-11.6-12.1-11.6-11.5-10.2-11.6
2019-07-02 18Z168-11-12.7-11.8-11.8-11.1-12.2-11.2-11.7-12.2-12.5-11.6-11.7-10.2-11.5-12.2-11.8-11.6-12-12-11-10.2-10.7
2019-07-02 21Z171-11.2-12.6-12-11.8-11.1-12-11.5-12-11.8-12.2-11.5-11.5-10.2-11.2-12.1-11.7-10.7-12.2-12.5-10.7-10.7-11.5
2019-07-03 00Z174-11.3-12.6-12.2-12.2-11.3-12.3-11.7-12.1-11.7-11.7-11.8-12-10.6-11.8-11.8-12.2-10.8-12.3-12.7-10.6-11.2-11.9
2019-07-03 03Z177-12.1-12.2-12.2-12.1-12.1-12.7-11.5-12.7-12.2-11.5-12.2-13-11.1-12.6-12-12.3-11.1-13-12.8-11.1-11.6-12.1
2019-07-03 06Z180-12.2-11.6-12.3-12.3-12.6-13.3-11.2-13.6-11.8-11.7-12.2-13.7-11.3-13.2-11.7-13-11.7-13.1-13.1-11.5-11.5-12.4
2019-07-03 09Z183-12.2-11.3-12.5-12.6-12.8-13.2-11.3-13.1-12.7-12.2-12.2-13.2-11.7-12.7-12.3-13-12-13.1-12.2-11.7-11.6-12.1
2019-07-03 12Z186-12.2-11.2-12.8-12.7-13.1-12.3-10.8-13-12-12-12.7-12.6-12.6-12.3-12-12.6-11.3-13.2-11.7-11.7-11.2-12.3
2019-07-03 15Z189-12-11.1-12.7-12.7-12.5-12.5-10.8-13-12.2-11-12.7-11.8-12.8-12.2-11.7-12.2-11.2-13-11.1-11.5-11.2-12.2
2019-07-03 18Z192-11.7-11.2-13.2-12.6-11.6-12.7-11.2-12.8-12.6-10.8-12.7-11.6-11.6-12.1-11.6-12-10.7-12.8-11.2-11.6-11.6-11.7
2019-07-04 00Z198-12-12-13.2-12.7-12.6-13.5-11.7-12.7-13-11.7-12.6-11.5-11.8-11.6-11.7-11.5-11-13.8-11.6-11.8-12.6-10.1
2019-07-04 06Z204-12.6-13.2-13.2-13.1-12.5-15.3-11.7-13-13.2-12.6-12.8-12.6-11.7-12.3-11.8-11.7-11.3-15.7-11.8-12.1-13.1-11.5
2019-07-04 12Z210-13.2-13.5-13.5-13.2-11.5-16.1-11.2-12.6-12.8-12.2-12.7-12.8-12.1-12.2-10.8-11.7-11-18.5-11.5-12.2-13.3-11.1
2019-07-04 18Z216-13.5-12.3-11-12.6-11.6-14.7-11.7-12.2-13.2-11.2-12.8-12.2-12.2-11.2-10.5-12.3-10.1-16.5-11.2-11.6-12.6-11.6
2019-07-05 00Z222-12.2-9.8-10-12.6-13.1-15.1-12.2-11.8-13.1-11.7-13-12-12.6-11.8-11.3-12.7-9.2-12.5-11.2-11.7-13.7-11
2019-07-05 06Z228-10.3-8.5-7-13.6-12.5-15.1-12.8-12.5-10.2-12.6-14.7-11.7-12.5-12.3-11.7-12.2-9.2-9.7-11-12.6-13.3-11.3
2019-07-05 12Z234-7.7-7.7-7.6-13.1-11.8-14.3-10.7-13.1-9.8-11.5-13.5-12.5-11-11.5-11.7-11.1-8.5-9.3-10.8-12.8-11.7-11.7
2019-07-05 18Z240-7.5-7.7-7.2-12.1-9.7-14.3-8.7-11.7-10.6-12-10.7-12.1-9.1-11.2-11-10.7-8.3-9.2-9.8-11.5-10.2-11
2019-07-06 00Z246-8-8.8-8-12.7-10.2-14.1-7.7-11-9-12.1-8.2-12.2-8.8-11.7-11.1-11.3-8.8-8.7-9.8-11.2-8.3-10.6
2019-07-06 06Z252-8.2-8.3-8.7-12.8-10.2-14.2-6.2-11-8.5-12.2-8.1-11.7-9.2-11.6-11.8-12.5-9.2-8.8-9.5-11-8.2-11
2019-07-06 12Z258-8.2-8.3-9.1-12.7-11.2-13.6-6.1-11.2-8.2-12.2-7.1-10.6-9.3-10.8-11.6-11.2-9.1-9.2-9.2-8.7-8.7-10.1
2019-07-06 18Z264-8.2-8.7-9.2-11.6-11.2-11.2-6.2-11.8-9.1-12.3-6.2-10.5-9.2-10-10.5-11.6-8.6-9.5-8.1-7.3-9.1-9.8
2019-07-07 00Z270-8.7-9.8-10.2-12.7-11.5-9.2-7.1-10.8-10-11.5-7.1-10.8-9.6-10.2-9.5-12.6-8.5-8.8-7.3-7.5-9.8-10.1
2019-07-07 06Z276-9.2-10.6-11.2-14.5-11-8.6-7.3-7.7-10.7-13-7.1-10.8-9.3-10.2-9.2-11.2-9.1-9.3-7.5-8.8-10.3-11
2019-07-07 12Z282-9.2-9.7-11.8-15-10-7.6-7.1-7.7-10.7-13.1-7.5-10.7-9-9.2-8.2-9.7-9.1-9.6-7.3-9.2-10.6-10.1
2019-07-07 18Z288-9.7-9.7-11-15.1-9.7-7.2-6.7-7.3-10.5-12.2-7.2-10.3-8.6-9.3-8.2-9.3-9.7-10-7.7-9.7-10.1-9.9
2019-07-08 00Z294-10.2-9.7-10.6-15.7-10.8-7.6-8-6.8-9.2-12.8-7.5-10.5-8.7-10.1-9-9.2-10.7-10.7-8.1-9.6-10-9.7
2019-07-08 06Z300-11.2-10.2-10.7-15.7-11-8.3-8.6-7.3-9.7-13.2-7.7-11.2-9.1-10.3-9.2-11.1-11.1-10.3-9.1-9.7-9.5-11.3
2019-07-08 12Z306-11.5-10.2-10.7-14.3-8.8-9.5-8.7-7.2-9.7-13.5-8.1-10.7-8.8-12.5-8.7-11-10.8-11.2-9.7-9.8-9.1-10.4
2019-07-08 18Z312-11.5-10.1-11.2-12.5-9.1-9.7-9.2-6.5-9.6-13.7-8.3-10.8-9.8-10.7-9-11.8-11.2-11.6-9.6-10-9.6-10.2
2019-07-09 00Z318-10.5-10.2-10.6-13.2-10.5-10.7-10.1-6.3-10-12.7-9.5-11-10-13-9.7-11.5-11.8-11.3-9.7-10-8.7-9.4
2019-07-09 06Z324-12.5-10.7-11.5-14.3-12.5-11.2-11.2-7.1-9.8-11.2-10.3-10.7-10.2-13.1-10.3-11.7-12.2-12.2-9.5-10.7-9.2-9.5
2019-07-09 12Z330-11.5-10.6-10.6-14.7-11.2-11.3-11.1-8.6-10.5-11.6-10.8-10.7-10.7-13.5-11-12.2-11.7-11.2-8.7-10.7-8.5-9.5
2019-07-09 18Z336-11.3-10.8-11.2-14.2-11.8-11.7-10.8-9.5-11.2-12.2-11.2-11.2-11.2-16.6-11-11.6-12.7-11.1-9.1-11-7.8-9
2019-07-10 00Z342-11.2-11.7-11-14-11.1-11.2-9.8-8.7-11-12.7-9-11.6-12.2-15.6-12.7-12.5-13.1-11.2-8.9-10.5-8.7-9
2019-07-10 06Z348-12.1-12-11.3-13.6-10.5-10.6-11.2-8.6-11.6-10.8-7.7-12.2-12.2-13.6-10.6-11.2-12.3-12.1-9.8-10.6-9.7-8.5
2019-07-10 12Z354-11.8-12.3-13.1-13.5-9.7-10.2-11.5-8.7-12.1-10.2-8-11.6-11.8-12.2-9.5-11.1-12.6-12.5-11-10-10-9.2
2019-07-10 18Z360-11.7-12.2-13.5-13.3-9.8-11.1-12.2-9.1-12-9.7-9.2-10.7-11.3-12.5-9.1-11.3-11.7-13.7-11.7-9.7-9.7-8.8
2019-07-11 00Z366-12.2-12.1-15.6-13.3-10.7-11.5-12.6-9.7-11.7-10.7-10.1-9.5-11.1-12.2-9.6-11.2-11.8-16.1-13.2-10.2-10-9
2019-07-11 06Z372-13.8-12.2-18.6-13.5-11.5-11.5-13.3-10.3-12.6-12-10.7-9.8-11.3-12.5-10.8-11.7-10.5-17.8-13.6-11.5-10.5-10.1
2019-07-11 12Z378-15.7-12.2-18.3-12.7-11.7-11.6-11.7-12.7-12.7-12.3-9.2-10-11.7-13.1-11.1-11.3-9.7-17.1-13.2-11.7-10.7-11.3
2019-07-11 18Z384-17.5-12.2-16.7-10.7-11.7-12-10.8-12.2-12.6-12.6-8.8-9.8-12.8-12.8-10.1-11.3-9.3-16.5-11.6-11-11.1-9.2

Retour à la carte

meteociel.fr™ | © 2004 - 2019 | Forums Météo | Prévi Paris | Liens météo | Média - Meteociel | Mentions légales | Contact
En poursuivant votre navigation sur Meteociel, vous acceptez l'utilisation des cookies. Ils assurent le bon fonctionnement de nos services. [ En savoir plus ] [ OK ]